sensor_id;sensor_type;location;lat;lon;timestamp;temperature;humidity
70820;DHT22;58439;51.046;13.692;2023-02-18T00:01:33;9.30;99.90
70820;DHT22;58439;51.046;13.692;2023-02-18T00:04:00;9.30;99.90
70820;DHT22;58439;51.046;13.692;2023-02-18T00:06:29;9.20;99.90
70820;DHT22;58439;51.046;13.692;2023-02-18T00:08:57;9.20;99.90
70820;DHT22;58439;51.046;13.692;2023-02-18T00:11:28;9.20;99.90
70820;DHT22;58439;51.046;13.692;2023-02-18T00:13:59;9.20;99.90
70820;DHT22;58439;51.046;13.692;2023-02-18T00:16:27;9.20;99.90
70820;DHT22;58439;51.046;13.692;2023-02-18T00:18:59;9.20;99.90
70820;DHT22;58439;51.046;13.692;2023-02-18T00:21:29;9.30;99.90
70820;DHT22;58439;51.046;13.692;2023-02-18T00:23:57;9.20;99.90
70820;DHT22;58439;51.046;13.692;2023-02-18T00:26:25;9.30;99.90
70820;DHT22;58439;51.046;13.692;2023-02-18T00:28:53;9.30;99.90
70820;DHT22;58439;51.046;13.692;2023-02-18T00:31:21;9.30;99.90
70820;DHT22;58439;51.046;13.692;2023-02-18T00:33:50;9.30;99.90
70820;DHT22;58439;51.046;13.692;2023-02-18T00:36:19;9.30;99.90
70820;DHT22;58439;51.046;13.692;2023-02-18T00:38:48;9.30;99.90
70820;DHT22;58439;51.046;13.692;2023-02-18T00:41:17;9.30;99.90
70820;DHT22;58439;51.046;13.692;2023-02-18T00:43:45;9.30;99.90
70820;DHT22;58439;51.046;13.692;2023-02-18T00:46:12;9.30;99.90
70820;DHT22;58439;51.046;13.692;2023-02-18T00:48:40;9.30;99.90
70820;DHT22;58439;51.046;13.692;2023-02-18T00:51:09;9.30;99.90
70820;DHT22;58439;51.046;13.692;2023-02-18T00:53:37;9.30;99.90
70820;DHT22;58439;51.046;13.692;2023-02-18T00:56:04;9.30;99.90
70820;DHT22;58439;51.046;13.692;2023-02-18T00:58:33;9.20;99.90
70820;DHT22;58439;51.046;13.692;2023-02-18T01:01:03;9.20;99.90
70820;DHT22;58439;51.046;13.692;2023-02-18T01:03:33;9.20;99.90
70820;DHT22;58439;51.046;13.692;2023-02-18T01:06:02;9.20;99.90
70820;DHT22;58439;51.046;13.692;2023-02-18T01:08:31;9.10;99.90
70820;DHT22;58439;51.046;13.692;2023-02-18T01:10:59;9.10;99.90
70820;DHT22;58439;51.046;13.692;2023-02-18T01:13:27;9.10;99.90
70820;DHT22;58439;51.046;13.692;2023-02-18T01:15:55;9.10;99.90
70820;DHT22;58439;51.046;13.692;2023-02-18T01:18:23;9.10;99.90
70820;DHT22;58439;51.046;13.692;2023-02-18T01:20:51;9.00;99.90
70820;DHT22;58439;51.046;13.692;2023-02-18T01:23:18;9.00;99.90
70820;DHT22;58439;51.046;13.692;2023-02-18T01:25:47;9.00;99.90
70820;DHT22;58439;51.046;13.692;2023-02-18T01:28:15;9.10;99.90
70820;DHT22;58439;51.046;13.692;2023-02-18T01:30:42;9.10;99.90
70820;DHT22;58439;51.046;13.692;2023-02-18T01:33:10;9.10;99.90
70820;DHT22;58439;51.046;13.692;2023-02-18T01:35:38;9.00;99.90
70820;DHT22;58439;51.046;13.692;2023-02-18T01:38:06;9.00;99.90
70820;DHT22;58439;51.046;13.692;2023-02-18T01:40:34;9.00;99.90
70820;DHT22;58439;51.046;13.692;2023-02-18T01:43:02;9.00;99.90
70820;DHT22;58439;51.046;13.692;2023-02-18T01:47:59;9.00;99.90
70820;DHT22;58439;51.046;13.692;2023-02-18T01:50:31;9.00;99.90
70820;DHT22;58439;51.046;13.692;2023-02-18T01:53:00;9.00;99.90
70820;DHT22;58439;51.046;13.692;2023-02-18T01:55:30;9.00;99.90
70820;DHT22;58439;51.046;13.692;2023-02-18T01:57:57;9.00;99.90
70820;DHT22;58439;51.046;13.692;2023-02-18T02:00:25;8.90;99.90
70820;DHT22;58439;51.046;13.692;2023-02-18T02:02:52;8.90;99.90
70820;DHT22;58439;51.046;13.692;2023-02-18T02:05:20;8.90;99.90
70820;DHT22;58439;51.046;13.692;2023-02-18T02:07:49;8.90;99.90
70820;DHT22;58439;51.046;13.692;2023-02-18T02:10:18;8.90;99.80
70820;DHT22;58439;51.046;13.692;2023-02-18T02:16:00;8.90;99.00
70820;DHT22;58439;51.046;13.692;2023-02-18T02:21:26;8.80;99.30
70820;DHT22;58439;51.046;13.692;2023-02-18T02:30:41;8.80;99.10
70820;DHT22;58439;51.046;13.692;2023-02-18T02:33:42;8.80;99.20
70820;DHT22;58439;51.046;13.692;2023-02-18T02:39:31;8.70;99.50
70820;DHT22;58439;51.046;13.692;2023-02-18T02:42:17;8.70;99.60
70820;DHT22;58439;51.046;13.692;2023-02-18T02:47:48;8.80;99.50
70820;DHT22;58439;51.046;13.692;2023-02-18T02:50:26;8.80;99.30
70820;DHT22;58439;51.046;13.692;2023-02-18T02:53:03;8.80;99.10
70820;DHT22;58439;51.046;13.692;2023-02-18T02:55:38;8.80;99.30
70820;DHT22;58439;51.046;13.692;2023-02-18T02:58:06;8.90;98.60
70820;DHT22;58439;51.046;13.692;2023-02-18T03:15:29;9.20;94.30
70820;DHT22;58439;51.046;13.692;2023-02-18T03:18:07;9.10;94.40
70820;DHT22;58439;51.046;13.692;2023-02-18T03:21:03;9.10;94.60
70820;DHT22;58439;51.046;13.692;2023-02-18T03:23:36;9.10;94.50
70820;DHT22;58439;51.046;13.692;2023-02-18T03:26:08;9.10;94.40
70820;DHT22;58439;51.046;13.692;2023-02-18T03:28:37;9.10;94.30
70820;DHT22;58439;51.046;13.692;2023-02-18T03:31:06;9.10;94.20
70820;DHT22;58439;51.046;13.692;2023-02-18T03:33:38;9.00;94.50
70820;DHT22;58439;51.046;13.692;2023-02-18T03:36:09;9.00;94.80
70820;DHT22;58439;51.046;13.692;2023-02-18T03:38:38;9.00;94.70
70820;DHT22;58439;51.046;13.692;2023-02-18T03:41:17;9.00;94.80
70820;DHT22;58439;51.046;13.692;2023-02-18T03:43:50;9.00;94.90
70820;DHT22;58439;51.046;13.692;2023-02-18T03:46:27;9.00;95.20
70820;DHT22;58439;51.046;13.692;2023-02-18T03:48:58;8.90;95.30
70820;DHT22;58439;51.046;13.692;2023-02-18T03:51:25;9.00;95.50
70820;DHT22;58439;51.046;13.692;2023-02-18T03:53:52;8.90;95.50
70820;DHT22;58439;51.046;13.692;2023-02-18T03:56:20;8.90;95.70
70820;DHT22;58439;51.046;13.692;2023-02-18T03:58:47;8.90;95.90
70820;DHT22;58439;51.046;13.692;2023-02-18T04:01:14;8.90;95.90
70820;DHT22;58439;51.046;13.692;2023-02-18T04:03:41;8.90;95.90
70820;DHT22;58439;51.046;13.692;2023-02-18T04:06:09;9.00;95.60
70820;DHT22;58439;51.046;13.692;2023-02-18T04:08:36;9.00;95.60
70820;DHT22;58439;51.046;13.692;2023-02-18T04:11:04;9.00;95.60
70820;DHT22;58439;51.046;13.692;2023-02-18T04:13:31;9.00;95.70
70820;DHT22;58439;51.046;13.692;2023-02-18T04:15:58;9.00;95.80
70820;DHT22;58439;51.046;13.692;2023-02-18T04:18:25;8.90;96.00
70820;DHT22;58439;51.046;13.692;2023-02-18T04:20:53;8.90;96.30
70820;DHT22;58439;51.046;13.692;2023-02-18T04:23:20;8.90;96.40
70820;DHT22;58439;51.046;13.692;2023-02-18T04:25:49;8.80;96.60
70820;DHT22;58439;51.046;13.692;2023-02-18T04:28:16;8.80;96.90
70820;DHT22;58439;51.046;13.692;2023-02-18T04:30:44;8.80;97.30
70820;DHT22;58439;51.046;13.692;2023-02-18T04:33:12;8.80;97.90
70820;DHT22;58439;51.046;13.692;2023-02-18T04:35:39;8.80;98.00
70820;DHT22;58439;51.046;13.692;2023-02-18T04:38:08;8.80;98.50
70820;DHT22;58439;51.046;13.692;2023-02-18T04:40:36;8.80;98.80
70820;DHT22;58439;51.046;13.692;2023-02-18T04:43:03;8.80;99.20
70820;DHT22;58439;51.046;13.692;2023-02-18T04:45:30;8.80;99.40
70820;DHT22;58439;51.046;13.692;2023-02-18T04:47:57;8.90;99.30
70820;DHT22;58439;51.046;13.692;2023-02-18T04:50:24;8.90;99.00
70820;DHT22;58439;51.046;13.692;2023-02-18T04:52:51;9.00;98.30
70820;DHT22;58439;51.046;13.692;2023-02-18T04:55:18;9.00;97.70
70820;DHT22;58439;51.046;13.692;2023-02-18T04:57:45;9.00;97.40
70820;DHT22;58439;51.046;13.692;2023-02-18T05:00:16;9.00;97.10
70820;DHT22;58439;51.046;13.692;2023-02-18T05:02:44;9.00;96.80
70820;DHT22;58439;51.046;13.692;2023-02-18T05:05:12;9.00;96.80
70820;DHT22;58439;51.046;13.692;2023-02-18T05:07:40;9.00;97.10
70820;DHT22;58439;51.046;13.692;2023-02-18T05:10:09;8.90;97.30
70820;DHT22;58439;51.046;13.692;2023-02-18T05:12:37;8.90;97.50
70820;DHT22;58439;51.046;13.692;2023-02-18T05:15:04;8.90;97.60
70820;DHT22;58439;51.046;13.692;2023-02-18T05:17:32;8.90;97.80
70820;DHT22;58439;51.046;13.692;2023-02-18T05:19:59;8.90;98.00
70820;DHT22;58439;51.046;13.692;2023-02-18T05:22:26;8.90;98.10
70820;DHT22;58439;51.046;13.692;2023-02-18T05:24:53;8.90;98.30
70820;DHT22;58439;51.046;13.692;2023-02-18T05:27:21;8.90;98.40
70820;DHT22;58439;51.046;13.692;2023-02-18T05:29:48;8.90;98.60
70820;DHT22;58439;51.046;13.692;2023-02-18T05:32:15;8.80;98.60
70820;DHT22;58439;51.046;13.692;2023-02-18T05:34:42;8.80;98.90
70820;DHT22;58439;51.046;13.692;2023-02-18T05:37:09;8.80;99.00
70820;DHT22;58439;51.046;13.692;2023-02-18T05:39:36;8.80;99.40
70820;DHT22;58439;51.046;13.692;2023-02-18T05:42:03;8.80;99.70
70820;DHT22;58439;51.046;13.692;2023-02-18T05:44:30;8.80;99.90
70820;DHT22;58439;51.046;13.692;2023-02-18T05:47:01;8.80;99.90
70820;DHT22;58439;51.046;13.692;2023-02-18T05:49:35;8.70;99.90
70820;DHT22;58439;51.046;13.692;2023-02-18T05:52:02;8.70;99.90
70820;DHT22;58439;51.046;13.692;2023-02-18T05:54:30;8.70;99.90
70820;DHT22;58439;51.046;13.692;2023-02-18T05:56:57;8.60;99.90
70820;DHT22;58439;51.046;13.692;2023-02-18T05:59:24;8.60;99.90
70820;DHT22;58439;51.046;13.692;2023-02-18T06:01:51;8.50;99.90
70820;DHT22;58439;51.046;13.692;2023-02-18T06:04:18;8.50;99.90
70820;DHT22;58439;51.046;13.692;2023-02-18T06:06:45;8.50;99.90
70820;DHT22;58439;51.046;13.692;2023-02-18T06:09:12;8.50;99.90
70820;DHT22;58439;51.046;13.692;2023-02-18T06:11:39;8.50;99.90
70820;DHT22;58439;51.046;13.692;2023-02-18T06:14:22;8.50;99.90
70820;DHT22;58439;51.046;13.692;2023-02-18T06:18:49;8.60;99.90
70820;DHT22;58439;51.046;13.692;2023-02-18T06:22:30;8.60;99.90
70820;DHT22;58439;51.046;13.692;2023-02-18T06:28:36;8.60;99.90
70820;DHT22;58439;51.046;13.692;2023-02-18T06:31:03;8.60;99.90
70820;DHT22;58439;51.046;13.692;2023-02-18T06:33:30;8.50;99.90
70820;DHT22;58439;51.046;13.692;2023-02-18T06:36:05;8.50;99.90
70820;DHT22;58439;51.046;13.692;2023-02-18T06:38:35;8.40;99.90
70820;DHT22;58439;51.046;13.692;2023-02-18T06:41:03;8.40;99.90
70820;DHT22;58439;51.046;13.692;2023-02-18T06:43:31;8.40;99.90
70820;DHT22;58439;51.046;13.692;2023-02-18T06:45:58;8.40;99.90
70820;DHT22;58439;51.046;13.692;2023-02-18T06:48:25;8.40;99.90
70820;DHT22;58439;51.046;13.692;2023-02-18T06:50:53;8.40;99.90
70820;DHT22;58439;51.046;13.692;2023-02-18T06:53:20;8.30;99.90
70820;DHT22;58439;51.046;13.692;2023-02-18T06:55:47;8.30;99.90
70820;DHT22;58439;51.046;13.692;2023-02-18T06:58:15;8.40;99.90
70820;DHT22;58439;51.046;13.692;2023-02-18T07:00:42;8.30;99.90
70820;DHT22;58439;51.046;13.692;2023-02-18T07:03:10;8.30;99.90
70820;DHT22;58439;51.046;13.692;2023-02-18T07:05:38;8.30;99.90
70820;DHT22;58439;51.046;13.692;2023-02-18T07:08:05;8.30;99.90
70820;DHT22;58439;51.046;13.692;2023-02-18T07:10:32;8.20;99.90
70820;DHT22;58439;51.046;13.692;2023-02-18T07:12:59;8.20;99.90
70820;DHT22;58439;51.046;13.692;2023-02-18T07:15:26;8.20;99.90
70820;DHT22;58439;51.046;13.692;2023-02-18T07:17:53;8.20;99.90
70820;DHT22;58439;51.046;13.692;2023-02-18T07:20:21;8.10;99.90
70820;DHT22;58439;51.046;13.692;2023-02-18T07:22:48;8.20;99.90
70820;DHT22;58439;51.046;13.692;2023-02-18T07:25:15;8.20;99.90
70820;DHT22;58439;51.046;13.692;2023-02-18T07:27:42;8.20;99.90
70820;DHT22;58439;51.046;13.692;2023-02-18T07:30:13;8.20;99.90
70820;DHT22;58439;51.046;13.692;2023-02-18T07:32:42;8.10;99.90
70820;DHT22;58439;51.046;13.692;2023-02-18T07:35:09;8.20;99.90
70820;DHT22;58439;51.046;13.692;2023-02-18T07:37:39;8.20;99.90
70820;DHT22;58439;51.046;13.692;2023-02-18T07:40:11;8.20;99.90
70820;DHT22;58439;51.046;13.692;2023-02-18T07:42:39;8.30;99.90
70820;DHT22;58439;51.046;13.692;2023-02-18T07:45:07;8.30;99.90
70820;DHT22;58439;51.046;13.692;2023-02-18T07:47:37;8.30;99.90
70820;DHT22;58439;51.046;13.692;2023-02-18T07:50:08;8.40;99.90
70820;DHT22;58439;51.046;13.692;2023-02-18T07:52:37;8.30;99.90
70820;DHT22;58439;51.046;13.692;2023-02-18T07:55:04;8.40;99.90
70820;DHT22;58439;51.046;13.692;2023-02-18T07:57:31;8.40;99.90
70820;DHT22;58439;51.046;13.692;2023-02-18T07:59:58;8.40;99.90
70820;DHT22;58439;51.046;13.692;2023-02-18T08:02:25;8.40;99.90
70820;DHT22;58439;51.046;13.692;2023-02-18T08:04:59;8.40;99.90
70820;DHT22;58439;51.046;13.692;2023-02-18T08:11:16;8.40;99.90
70820;DHT22;58439;51.046;13.692;2023-02-18T08:13:46;8.50;99.90
70820;DHT22;58439;51.046;13.692;2023-02-18T08:16:15;8.50;99.90
70820;DHT22;58439;51.046;13.692;2023-02-18T08:18:43;8.60;99.90
70820;DHT22;58439;51.046;13.692;2023-02-18T08:21:10;8.60;99.90
70820;DHT22;58439;51.046;13.692;2023-02-18T08:23:37;8.60;99.90
70820;DHT22;58439;51.046;13.692;2023-02-18T08:30:57;8.60;99.90
70820;DHT22;58439;51.046;13.692;2023-02-18T08:41:41;8.70;99.90
70820;DHT22;58439;51.046;13.692;2023-02-18T08:58:52;8.80;99.90
70820;DHT22;58439;51.046;13.692;2023-02-18T09:02:18;8.80;99.90
70820;DHT22;58439;51.046;13.692;2023-02-18T09:06:05;8.80;99.90
70820;DHT22;58439;51.046;13.692;2023-02-18T09:08:33;8.80;99.90
70820;DHT22;58439;51.046;13.692;2023-02-18T09:11:01;8.80;99.90
70820;DHT22;58439;51.046;13.692;2023-02-18T09:13:31;8.80;99.90
70820;DHT22;58439;51.046;13.692;2023-02-18T09:16:03;8.80;99.90
70820;DHT22;58439;51.046;13.692;2023-02-18T09:18:34;8.90;99.90
70820;DHT22;58439;51.046;13.692;2023-02-18T09:21:02;8.90;99.90
70820;DHT22;58439;51.046;13.692;2023-02-18T09:23:31;8.90;99.90
70820;DHT22;58439;51.046;13.692;2023-02-18T09:26:03;8.90;99.90
70820;DHT22;58439;51.046;13.692;2023-02-18T09:28:31;9.00;99.90
70820;DHT22;58439;51.046;13.692;2023-02-18T09:31:04;9.00;99.90
70820;DHT22;58439;51.046;13.692;2023-02-18T09:33:36;9.00;99.90
70820;DHT22;58439;51.046;13.692;2023-02-18T09:36:05;9.10;99.90
70820;DHT22;58439;51.046;13.692;2023-02-18T09:38:33;9.30;99.90
70820;DHT22;58439;51.046;13.692;2023-02-18T09:42:01;9.60;99.90
70820;DHT22;58439;51.046;13.692;2023-02-18T09:45:18;10.10;99.90
70820;DHT22;58439;51.046;13.692;2023-02-18T09:48:07;10.70;99.90
70820;DHT22;58439;51.046;13.692;2023-02-18T09:50:48;11.00;99.90
70820;DHT22;58439;51.046;13.692;2023-02-18T09:53:26;11.10;99.90
70820;DHT22;58439;51.046;13.692;2023-02-18T09:55:54;11.20;99.90
70820;DHT22;58439;51.046;13.692;2023-02-18T09:58:25;11.20;99.90
70820;DHT22;58439;51.046;13.692;2023-02-18T10:03:36;11.10;99.90
70820;DHT22;58439;51.046;13.692;2023-02-18T10:06:11;11.10;99.90
70820;DHT22;58439;51.046;13.692;2023-02-18T10:08:45;11.10;99.90
70820;DHT22;58439;51.046;13.692;2023-02-18T10:14:29;11.00;99.90
70820;DHT22;58439;51.046;13.692;2023-02-18T10:16:57;10.80;99.90
70820;DHT22;58439;51.046;13.692;2023-02-18T10:20:09;10.70;99.90
70820;DHT22;58439;51.046;13.692;2023-02-18T10:22:46;10.70;99.90
70820;DHT22;58439;51.046;13.692;2023-02-18T10:25:16;10.60;99.90
70820;DHT22;58439;51.046;13.692;2023-02-18T10:27:45;10.60;99.90
70820;DHT22;58439;51.046;13.692;2023-02-18T10:32:44;10.70;99.90
70820;DHT22;58439;51.046;13.692;2023-02-18T10:35:15;10.70;99.90
70820;DHT22;58439;51.046;13.692;2023-02-18T10:41:05;10.80;99.90
70820;DHT22;58439;51.046;13.692;2023-02-18T10:46:21;10.90;99.90
70820;DHT22;58439;51.046;13.692;2023-02-18T10:48:59;10.90;99.90
70820;DHT22;58439;51.046;13.692;2023-02-18T10:51:56;10.90;99.90
70820;DHT22;58439;51.046;13.692;2023-02-18T10:54:26;10.90;99.90
70820;DHT22;58439;51.046;13.692;2023-02-18T10:56:58;11.00;99.90
70820;DHT22;58439;51.046;13.692;2023-02-18T10:59:32;11.00;99.90
70820;DHT22;58439;51.046;13.692;2023-02-18T11:02:01;11.10;99.90
70820;DHT22;58439;51.046;13.692;2023-02-18T11:04:35;11.20;99.90
70820;DHT22;58439;51.046;13.692;2023-02-18T11:07:07;11.30;99.90
70820;DHT22;58439;51.046;13.692;2023-02-18T11:09:41;11.40;99.90
70820;DHT22;58439;51.046;13.692;2023-02-18T11:12:23;11.50;99.90
70820;DHT22;58439;51.046;13.692;2023-02-18T11:17:41;12.00;99.90
70820;DHT22;58439;51.046;13.692;2023-02-18T11:22:51;12.10;99.90
70820;DHT22;58439;51.046;13.692;2023-02-18T11:25:25;12.10;99.90
70820;DHT22;58439;51.046;13.692;2023-02-18T11:31:54;12.30;99.90
70820;DHT22;58439;51.046;13.692;2023-02-18T11:34:27;12.30;99.90
70820;DHT22;58439;51.046;13.692;2023-02-18T11:37:17;12.40;99.90
70820;DHT22;58439;51.046;13.692;2023-02-18T11:39:47;12.40;99.90
70820;DHT22;58439;51.046;13.692;2023-02-18T11:42:23;12.50;99.90
70820;DHT22;58439;51.046;13.692;2023-02-18T11:45:48;12.50;99.90
70820;DHT22;58439;51.046;13.692;2023-02-18T11:48:43;12.60;99.90
70820;DHT22;58439;51.046;13.692;2023-02-18T11:51:15;12.50;99.90
70820;DHT22;58439;51.046;13.692;2023-02-18T11:59:49;12.40;99.90
70820;DHT22;58439;51.046;13.692;2023-02-18T12:02:27;12.30;99.90
70820;DHT22;58439;51.046;13.692;2023-02-18T12:05:01;12.20;99.90
70820;DHT22;58439;51.046;13.692;2023-02-18T12:07:46;12.20;99.90
70820;DHT22;58439;51.046;13.692;2023-02-18T12:11:41;12.10;99.90
70820;DHT22;58439;51.046;13.692;2023-02-18T12:14:13;11.90;99.90
70820;DHT22;58439;51.046;13.692;2023-02-18T12:19:48;11.60;99.90
70820;DHT22;58439;51.046;13.692;2023-02-18T12:22:43;11.50;99.90
70820;DHT22;58439;51.046;13.692;2023-02-18T12:25:23;11.50;99.90
70820;DHT22;58439;51.046;13.692;2023-02-18T12:28:03;11.50;99.90
70820;DHT22;58439;51.046;13.692;2023-02-18T12:33:54;11.50;99.90
70820;DHT22;58439;51.046;13.692;2023-02-18T12:36:44;11.60;99.90
70820;DHT22;58439;51.046;13.692;2023-02-18T12:53:25;11.40;99.90
70820;DHT22;58439;51.046;13.692;2023-02-18T12:59:07;11.00;99.90
70820;DHT22;58439;51.046;13.692;2023-02-18T13:10:51;11.50;99.90
70820;DHT22;58439;51.046;13.692;2023-02-18T13:13:33;11.20;99.90
70820;DHT22;58439;51.046;13.692;2023-02-18T13:16:09;11.00;99.90
70820;DHT22;58439;51.046;13.692;2023-02-18T13:21:48;11.00;99.90
70820;DHT22;58439;51.046;13.692;2023-02-18T13:24:23;11.10;99.90
70820;DHT22;58439;51.046;13.692;2023-02-18T13:27:15;11.20;99.90
70820;DHT22;58439;51.046;13.692;2023-02-18T13:29:55;11.50;99.90
70820;DHT22;58439;51.046;13.692;2023-02-18T13:32:52;11.60;99.90
70820;DHT22;58439;51.046;13.692;2023-02-18T13:35:34;11.60;99.90
70820;DHT22;58439;51.046;13.692;2023-02-18T13:38:23;11.40;99.90
70820;DHT22;58439;51.046;13.692;2023-02-18T13:41:00;11.20;99.90
70820;DHT22;58439;51.046;13.692;2023-02-18T13:43:29;10.70;99.90
70820;DHT22;58439;51.046;13.692;2023-02-18T13:51:38;10.30;99.90
70820;DHT22;58439;51.046;13.692;2023-02-18T13:57:39;10.30;99.90
70820;DHT22;58439;51.046;13.692;2023-02-18T14:00:14;10.30;99.90
70820;DHT22;58439;51.046;13.692;2023-02-18T14:03:36;10.30;99.90
70820;DHT22;58439;51.046;13.692;2023-02-18T14:25:16;10.70;99.90
70820;DHT22;58439;51.046;13.692;2023-02-18T14:27:52;10.70;99.90
70820;DHT22;58439;51.046;13.692;2023-02-18T14:32:49;10.70;99.90
70820;DHT22;58439;51.046;13.692;2023-02-18T14:35:21;10.70;99.90
70820;DHT22;58439;51.046;13.692;2023-02-18T14:38:23;10.70;99.90
70820;DHT22;58439;51.046;13.692;2023-02-18T14:44:11;10.70;99.70
70820;DHT22;58439;51.046;13.692;2023-02-18T14:52:31;10.80;99.40
70820;DHT22;58439;51.046;13.692;2023-02-18T14:55:02;10.90;98.50
70820;DHT22;58439;51.046;13.692;2023-02-18T14:57:35;10.90;98.10
70820;DHT22;58439;51.046;13.692;2023-02-18T15:00:14;10.90;98.20
70820;DHT22;58439;51.046;13.692;2023-02-18T15:02:52;10.90;98.30
70820;DHT22;58439;51.046;13.692;2023-02-18T15:05:22;10.80;99.10
70820;DHT22;58439;51.046;13.692;2023-02-18T15:10:52;10.50;99.90
70820;DHT22;58439;51.046;13.692;2023-02-18T15:13:28;10.20;99.90
70820;DHT22;58439;51.046;13.692;2023-02-18T15:16:00;10.00;99.90
70820;DHT22;58439;51.046;13.692;2023-02-18T15:18:32;9.80;99.90
70820;DHT22;58439;51.046;13.692;2023-02-18T15:21:16;9.80;99.90
70820;DHT22;58439;51.046;13.692;2023-02-18T15:23:47;9.80;99.90
70820;DHT22;58439;51.046;13.692;2023-02-18T15:26:14;9.80;99.90
70820;DHT22;58439;51.046;13.692;2023-02-18T15:29:04;9.70;99.90
70820;DHT22;58439;51.046;13.692;2023-02-18T15:31:36;9.80;99.90
70820;DHT22;58439;51.046;13.692;2023-02-18T15:34:26;9.80;99.90
70820;DHT22;58439;51.046;13.692;2023-02-18T15:36:55;9.90;99.90
70820;DHT22;58439;51.046;13.692;2023-02-18T15:39:24;10.00;99.90
70820;DHT22;58439;51.046;13.692;2023-02-18T15:41:52;10.10;99.90
70820;DHT22;58439;51.046;13.692;2023-02-18T15:44:23;10.30;99.90
70820;DHT22;58439;51.046;13.692;2023-02-18T15:46:53;10.50;99.90
70820;DHT22;58439;51.046;13.692;2023-02-18T15:49:21;10.50;99.80
70820;DHT22;58439;51.046;13.692;2023-02-18T15:51:49;10.60;99.20
70820;DHT22;58439;51.046;13.692;2023-02-18T15:54:23;10.70;99.20
70820;DHT22;58439;51.046;13.692;2023-02-18T15:56:51;10.70;98.50
70820;DHT22;58439;51.046;13.692;2023-02-18T16:02:18;10.80;98.40
70820;DHT22;58439;51.046;13.692;2023-02-18T16:04:59;10.80;98.00
70820;DHT22;58439;51.046;13.692;2023-02-18T16:07:32;10.90;97.70
70820;DHT22;58439;51.046;13.692;2023-02-18T16:10:17;10.90;97.60
70820;DHT22;58439;51.046;13.692;2023-02-18T16:13:06;11.00;97.20
70820;DHT22;58439;51.046;13.692;2023-02-18T16:15:39;11.00;96.90
70820;DHT22;58439;51.046;13.692;2023-02-18T16:18:18;11.10;96.60
70820;DHT22;58439;51.046;13.692;2023-02-18T16:20:57;11.10;96.60
70820;DHT22;58439;51.046;13.692;2023-02-18T16:23:35;11.10;96.80
70820;DHT22;58439;51.046;13.692;2023-02-18T16:26:52;11.00;96.90
70820;DHT22;58439;51.046;13.692;2023-02-18T16:29:41;11.00;97.20
70820;DHT22;58439;51.046;13.692;2023-02-18T16:32:27;11.00;97.10
70820;DHT22;58439;51.046;13.692;2023-02-18T16:34:59;11.10;97.10
70820;DHT22;58439;51.046;13.692;2023-02-18T16:38:16;11.00;97.10
70820;DHT22;58439;51.046;13.692;2023-02-18T16:40:51;11.00;97.00
70820;DHT22;58439;51.046;13.692;2023-02-18T16:47:05;11.00;97.20
70820;DHT22;58439;51.046;13.692;2023-02-18T16:50:54;11.00;97.30
70820;DHT22;58439;51.046;13.692;2023-02-18T16:53:43;11.00;97.00
70820;DHT22;58439;51.046;13.692;2023-02-18T16:57:11;11.00;96.70
70820;DHT22;58439;51.046;13.692;2023-02-18T17:00:06;11.00;96.80
70820;DHT22;58439;51.046;13.692;2023-02-18T17:03:20;11.00;96.70
70820;DHT22;58439;51.046;13.692;2023-02-18T17:06:01;11.10;96.30
70820;DHT22;58439;51.046;13.692;2023-02-18T17:08:42;11.10;96.10
70820;DHT22;58439;51.046;13.692;2023-02-18T17:11:27;11.20;96.20
70820;DHT22;58439;51.046;13.692;2023-02-18T17:17:57;11.00;97.50
70820;DHT22;58439;51.046;13.692;2023-02-18T17:20:26;10.70;98.50
70820;DHT22;58439;51.046;13.692;2023-02-18T17:25:34;10.50;99.90
70820;DHT22;58439;51.046;13.692;2023-02-18T17:28:04;10.50;99.90
70820;DHT22;58439;51.046;13.692;2023-02-18T17:30:33;10.50;99.90
70820;DHT22;58439;51.046;13.692;2023-02-18T17:33:02;10.40;99.90
70820;DHT22;58439;51.046;13.692;2023-02-18T17:35:33;10.20;99.90
70820;DHT22;58439;51.046;13.692;2023-02-18T17:38:00;10.20;99.90
70820;DHT22;58439;51.046;13.692;2023-02-18T17:40:27;10.30;99.90
70820;DHT22;58439;51.046;13.692;2023-02-18T17:42:54;10.20;99.90
70820;DHT22;58439;51.046;13.692;2023-02-18T17:45:26;10.00;99.90
70820;DHT22;58439;51.046;13.692;2023-02-18T17:47:58;9.90;99.90
70820;DHT22;58439;51.046;13.692;2023-02-18T17:50:26;10.00;99.90
70820;DHT22;58439;51.046;13.692;2023-02-18T17:52:55;10.00;99.90
70820;DHT22;58439;51.046;13.692;2023-02-18T17:55:23;10.10;99.90
70820;DHT22;58439;51.046;13.692;2023-02-18T17:57:56;10.20;99.90
70820;DHT22;58439;51.046;13.692;2023-02-18T18:00:25;10.40;99.90
70820;DHT22;58439;51.046;13.692;2023-02-18T18:02:58;10.40;99.90
70820;DHT22;58439;51.046;13.692;2023-02-18T18:05:26;10.40;99.90
70820;DHT22;58439;51.046;13.692;2023-02-18T18:07:59;10.30;99.90
70820;DHT22;58439;51.046;13.692;2023-02-18T18:10:28;10.20;99.90
70820;DHT22;58439;51.046;13.692;2023-02-18T18:12:59;10.20;99.90
70820;DHT22;58439;51.046;13.692;2023-02-18T18:15:30;10.30;99.90
70820;DHT22;58439;51.046;13.692;2023-02-18T18:18:05;10.40;99.90
70820;DHT22;58439;51.046;13.692;2023-02-18T18:20:33;10.50;99.90
70820;DHT22;58439;51.046;13.692;2023-02-18T18:23:01;10.60;99.70
70820;DHT22;58439;51.046;13.692;2023-02-18T18:25:32;10.60;98.90
70820;DHT22;58439;51.046;13.692;2023-02-18T18:28:03;10.80;98.30
70820;DHT22;58439;51.046;13.692;2023-02-18T18:30:31;10.80;98.20
70820;DHT22;58439;51.046;13.692;2023-02-18T18:33:01;10.80;98.10
70820;DHT22;58439;51.046;13.692;2023-02-18T18:35:30;10.90;98.10
70820;DHT22;58439;51.046;13.692;2023-02-18T18:38:01;10.90;98.50
70820;DHT22;58439;51.046;13.692;2023-02-18T18:40:29;10.80;99.30
70820;DHT22;58439;51.046;13.692;2023-02-18T18:42:58;10.70;99.90
70820;DHT22;58439;51.046;13.692;2023-02-18T18:45:27;10.60;99.90
70820;DHT22;58439;51.046;13.692;2023-02-18T18:47:56;10.40;99.90
70820;DHT22;58439;51.046;13.692;2023-02-18T18:50:25;10.20;99.90
70820;DHT22;58439;51.046;13.692;2023-02-18T18:52:53;10.10;99.90
70820;DHT22;58439;51.046;13.692;2023-02-18T18:55:22;10.10;99.90
70820;DHT22;58439;51.046;13.692;2023-02-18T18:57:52;10.10;99.90
70820;DHT22;58439;51.046;13.692;2023-02-18T19:00:29;10.10;99.90
70820;DHT22;58439;51.046;13.692;2023-02-18T19:03:01;10.10;99.90
70820;DHT22;58439;51.046;13.692;2023-02-18T19:05:36;10.20;99.90
70820;DHT22;58439;51.046;13.692;2023-02-18T19:08:04;10.20;99.90
70820;DHT22;58439;51.046;13.692;2023-02-18T19:10:34;10.30;99.90
70820;DHT22;58439;51.046;13.692;2023-02-18T19:13:05;10.30;99.90
70820;DHT22;58439;51.046;13.692;2023-02-18T19:15:32;10.30;99.90
70820;DHT22;58439;51.046;13.692;2023-02-18T19:18:00;10.40;99.90
70820;DHT22;58439;51.046;13.692;2023-02-18T19:20:28;10.50;99.90